createdAt,value
2022-11-19T00:01:18.152Z,0.62
2022-11-19T00:03:48.775Z,0.44
2022-11-19T00:06:24.331Z,0.23
2022-11-19T00:08:51.339Z,0.26
2022-11-19T00:11:39.775Z,0.41
2022-11-19T00:14:07.295Z,0.30
2022-11-19T00:16:34.151Z,0.37
2022-11-19T00:19:01.112Z,0.44
2022-11-19T00:21:28.155Z,0.48
2022-11-19T00:23:55.640Z,0.27
2022-11-19T00:26:23.066Z,0.27
2022-11-19T00:28:50.393Z,0.48
2022-11-19T00:31:17.907Z,0.38
2022-11-19T00:33:45.629Z,0.44
2022-11-19T00:36:14.628Z,0.23
2022-11-19T00:38:41.668Z,0.40
2022-11-19T00:41:09.101Z,0.55
2022-11-19T00:43:48.635Z,0.46
2022-11-19T00:46:25.482Z,0.38
2022-11-19T00:48:54.644Z,0.31
2022-11-19T00:51:23.417Z,0.20
2022-11-19T00:53:50.600Z,0.32
2022-11-19T00:56:19.509Z,0.33
2022-11-19T00:58:46.819Z,0.47
2022-11-19T01:01:15.065Z,0.46
2022-11-19T01:03:42.472Z,0.39
2022-11-19T01:06:10.505Z,0.39
2022-11-19T01:08:38.861Z,0.13
2022-11-19T01:11:11.257Z,0.19
2022-11-19T01:13:38.491Z,0.25
2022-11-19T01:16:11.674Z,0.34
2022-11-19T01:18:40.839Z,0.29
2022-11-19T01:21:08.839Z,0.36
2022-11-19T01:23:35.760Z,0.27
2022-11-19T01:26:03.071Z,0.36
2022-11-19T01:28:30.186Z,0.28
2022-11-19T01:30:57.296Z,0.19
2022-11-19T01:33:24.516Z,0.11
2022-11-19T01:36:16.481Z,0.10
2022-11-19T01:38:43.582Z,0.26
2022-11-19T01:41:11.316Z,0.14
2022-11-19T01:43:59.542Z,0.00
2022-11-19T01:46:32.560Z,0.06
2022-11-19T01:49:19.804Z,0.03
2022-11-19T01:51:58.956Z,0.13
2022-11-19T01:54:30.352Z,0.15
2022-11-19T01:57:00.523Z,-0.01
2022-11-19T01:59:28.673Z,-0.10
2022-11-19T02:01:56.637Z,0.11
2022-11-19T02:04:24.312Z,-0.01
2022-11-19T02:06:51.707Z,-0.04
2022-11-19T02:09:18.767Z,-0.14
2022-11-19T02:12:04.114Z,0.00
2022-11-19T02:14:56.974Z,0.03
2022-11-19T02:17:52.335Z,0.02
2022-11-19T02:20:44.230Z,-0.01
2022-11-19T02:23:48.209Z,0.08
2022-11-19T02:27:13.426Z,0.19
2022-11-19T02:30:30.352Z,-0.11
2022-11-19T02:33:08.291Z,0.08
2022-11-19T02:35:47.394Z,0.07
2022-11-19T02:38:45.498Z,0.11
2022-11-19T02:41:36.144Z,0.17
2022-11-19T02:44:52.638Z,0.18
2022-11-19T02:47:22.628Z,0.11
2022-11-19T02:49:52.961Z,0.03
2022-11-19T02:52:19.991Z,0.00
2022-11-19T02:54:46.847Z,0.01
2022-11-19T02:57:14.330Z,-0.01
2022-11-19T03:00:09.142Z,-0.16
2022-11-19T03:02:58.582Z,0.02
2022-11-19T03:05:28.799Z,0.07
2022-11-19T03:07:55.777Z,0.14
2022-11-19T03:10:30.589Z,-0.01
2022-11-19T03:13:30.164Z,-0.16
2022-11-19T03:16:16.297Z,-0.11
2022-11-19T03:18:50.600Z,-0.08
2022-11-19T03:21:29.884Z,0.02
2022-11-19T03:24:21.141Z,0.05
2022-11-19T03:27:04.920Z,-0.12
2022-11-19T03:29:33.666Z,-0.24
2022-11-19T03:32:05.794Z,-0.29
2022-11-19T03:34:33.175Z,-0.10
2022-11-19T03:37:01.771Z,-0.13
2022-11-19T03:39:28.766Z,-0.10
2022-11-19T03:41:57.183Z,-0.33
2022-11-19T03:44:32.897Z,-0.12
2022-11-19T03:47:08.255Z,-0.18
2022-11-19T03:49:38.643Z,-0.12
2022-11-19T03:52:10.679Z,-0.40
2022-11-19T03:54:39.445Z,-0.43
2022-11-19T03:57:07.252Z,-0.42
2022-11-19T03:59:35.164Z,-0.17
2022-11-19T04:02:04.730Z,-0.06
2022-11-19T04:04:37.757Z,-0.17
2022-11-19T04:07:15.595Z,-0.09
2022-11-19T04:09:42.949Z,0.03
2022-11-19T04:12:16.263Z,-0.07
2022-11-19T04:14:43.103Z,-0.01
2022-11-19T04:17:09.934Z,-0.24
2022-11-19T04:19:36.966Z,0.06
2022-11-19T04:22:04.007Z,-0.06
2022-11-19T04:24:30.871Z,-0.31
2022-11-19T04:26:57.843Z,-0.23
2022-11-19T04:29:24.912Z,-0.13
2022-11-19T04:31:51.653Z,-0.33
2022-11-19T04:34:18.509Z,-0.21
2022-11-19T04:36:46.242Z,-0.28
2022-11-19T04:39:13.089Z,-0.22
2022-11-19T04:41:40.619Z,-0.16
2022-11-19T04:44:07.590Z,-0.20
2022-11-19T04:46:34.448Z,-0.29
2022-11-19T04:49:01.246Z,-0.15
2022-11-19T04:51:28.093Z,-0.35
2022-11-19T04:53:55.649Z,-0.28
2022-11-19T04:56:22.748Z,-0.20
2022-11-19T04:58:49.568Z,-0.34
2022-11-19T05:01:16.656Z,-0.19
2022-11-19T05:03:43.577Z,-0.08
2022-11-19T05:06:10.427Z,-0.52
2022-11-19T05:08:37.483Z,-0.41
2022-11-19T05:11:04.364Z,-0.30
2022-11-19T05:13:31.361Z,-0.14
2022-11-19T05:15:58.120Z,-0.32
2022-11-19T05:18:25.016Z,-0.30
2022-11-19T05:20:52.310Z,-0.53
2022-11-19T05:23:19.157Z,-0.48
2022-11-19T05:25:46.010Z,-0.39
2022-11-19T05:28:13.285Z,-0.25
2022-11-19T05:30:40.252Z,-0.38
2022-11-19T05:33:07.393Z,-0.30
2022-11-19T05:35:34.305Z,-0.31
2022-11-19T05:38:01.417Z,-0.24
2022-11-19T05:40:29.010Z,-0.49
2022-11-19T05:42:55.917Z,-0.46
2022-11-19T05:45:22.854Z,-0.45
2022-11-19T05:47:54.719Z,-0.35
2022-11-19T05:50:21.479Z,-0.40
2022-11-19T05:52:48.342Z,-0.40
2022-11-19T05:55:15.529Z,-0.41
2022-11-19T05:57:42.427Z,-0.46
2022-11-19T06:00:10.803Z,-0.35
2022-11-19T06:02:37.722Z,-0.57
2022-11-19T06:05:05.457Z,-0.35
2022-11-19T06:07:32.313Z,-0.24
2022-11-19T06:09:59.321Z,-0.36
2022-11-19T06:12:25.980Z,-0.27
2022-11-19T06:14:52.852Z,-0.36
2022-11-19T06:17:19.629Z,-0.33
2022-11-19T06:19:46.606Z,-0.41
2022-11-19T06:22:13.395Z,-0.29
2022-11-19T06:24:40.097Z,-0.38
2022-11-19T06:27:06.873Z,-0.35
2022-11-19T06:29:33.725Z,-0.43
2022-11-19T06:32:00.648Z,-0.38
2022-11-19T06:34:27.574Z,-0.37
2022-11-19T06:36:54.835Z,-0.32
2022-11-19T06:39:21.822Z,-0.47
2022-11-19T06:41:49.036Z,-0.45
2022-11-19T06:44:15.928Z,-0.48
2022-11-19T06:46:42.762Z,-0.41
2022-11-19T06:49:13.187Z,-0.36
2022-11-19T06:51:42.577Z,-0.52
2022-11-19T06:54:10.687Z,-0.44
2022-11-19T06:56:37.469Z,-0.53
2022-11-19T06:59:04.254Z,-0.56
2022-11-19T07:01:31.210Z,-0.35
2022-11-19T07:03:58.180Z,-0.48
2022-11-19T07:06:25.097Z,-0.44
2022-11-19T07:08:51.944Z,-0.37
2022-11-19T07:11:27.743Z,-0.25
2022-11-19T07:13:58.449Z,-0.32
2022-11-19T07:16:27.310Z,-0.22
2022-11-19T07:18:54.437Z,-0.33
2022-11-19T07:21:21.374Z,-0.21
2022-11-19T07:23:48.221Z,-0.29
2022-11-19T07:26:15.503Z,-0.44
2022-11-19T07:28:42.363Z,-0.47
2022-11-19T07:31:09.302Z,-0.30
2022-11-19T07:33:39.163Z,-0.54
2022-11-19T07:36:15.352Z,-0.40
2022-11-19T07:38:45.078Z,-0.33
2022-11-19T07:41:30.520Z,-0.16
2022-11-19T07:43:57.495Z,-0.13
2022-11-19T07:46:24.662Z,-0.43
2022-11-19T07:48:55.637Z,-0.42
2022-11-19T07:51:23.778Z,-0.42
2022-11-19T07:53:51.037Z,-0.31
2022-11-19T07:56:18.714Z,-0.32
2022-11-19T07:58:45.524Z,-0.35
2022-11-19T08:01:18.676Z,-0.38
2022-11-19T08:03:49.623Z,-0.34
2022-11-19T08:06:21.165Z,-0.13
2022-11-19T08:08:48.060Z,-0.30
2022-11-19T08:11:15.954Z,-0.34
2022-11-19T08:13:43.117Z,-0.31
2022-11-19T08:16:12.772Z,-0.37
2022-11-19T08:18:40.008Z,-0.45
2022-11-19T08:21:08.799Z,-0.25
2022-11-19T08:23:36.898Z,-0.21
2022-11-19T08:26:04.543Z,-0.24
2022-11-19T08:28:31.584Z,-0.35
2022-11-19T08:31:08.940Z,-0.25
2022-11-19T08:33:36.366Z,-0.10
2022-11-19T08:36:03.709Z,-0.12
2022-11-19T08:38:35.816Z,0.02
2022-11-19T08:41:24.362Z,0.04
2022-11-19T08:43:51.527Z,-0.10
2022-11-19T08:46:18.278Z,-0.10
2022-11-19T08:48:45.193Z,-0.10
2022-11-19T08:51:14.943Z,0.01
2022-11-19T08:53:41.801Z,-0.17
2022-11-19T08:56:10.907Z,-0.17
2022-11-19T08:58:40.714Z,-0.48
2022-11-19T09:01:12.223Z,-0.16
2022-11-19T09:03:39.319Z,-0.27
2022-11-19T09:06:06.710Z,-0.17
2022-11-19T09:08:34.048Z,-0.22
2022-11-19T09:11:06.386Z,-0.33
2022-11-19T09:13:33.282Z,-0.31
2022-11-19T09:16:00.119Z,-0.32
2022-11-19T09:18:26.941Z,-0.58
2022-11-19T09:20:55.452Z,-0.64
2022-11-19T09:23:23.382Z,-0.53
2022-11-19T09:26:00.565Z,-0.62
2022-11-19T09:28:28.418Z,-0.58
2022-11-19T09:31:16.050Z,-0.53
2022-11-19T09:33:46.236Z,-0.49
2022-11-19T09:36:14.136Z,-0.38
2022-11-19T09:38:42.401Z,-0.65
2022-11-19T09:41:49.262Z,-0.48
2022-11-19T09:44:48.088Z,-0.52
2022-11-19T09:47:53.350Z,-0.32
2022-11-19T09:50:23.489Z,-0.25
2022-11-19T09:52:56.186Z,-0.15
2022-11-19T09:55:32.114Z,-0.13
2022-11-19T09:57:59.805Z,0.01
2022-11-19T10:00:29.873Z,0.08
2022-11-19T10:03:03.216Z,0.13
2022-11-19T10:06:22.383Z,0.00
2022-11-19T10:09:32.395Z,0.16
2022-11-19T10:12:38.381Z,0.23
2022-11-19T10:15:30.859Z,0.16
2022-11-19T10:18:38.333Z,0.19
2022-11-19T10:21:23.854Z,0.27
2022-11-19T10:24:18.579Z,0.20
2022-11-19T10:26:53.517Z,0.08
2022-11-19T10:29:23.134Z,0.02
2022-11-19T10:31:51.184Z,0.19
2022-11-19T10:34:38.219Z,0.12
2022-11-19T10:37:17.255Z,0.07
2022-11-19T10:39:48.273Z,0.05
2022-11-19T10:42:28.946Z,0.16
2022-11-19T10:45:23.180Z,0.23
2022-11-19T10:48:09.406Z,0.17
2022-11-19T10:50:36.868Z,0.32
2022-11-19T10:53:20.169Z,0.22
2022-11-19T10:55:54.246Z,0.34
2022-11-19T10:58:36.704Z,0.41
2022-11-19T11:01:04.516Z,0.37
2022-11-19T11:03:35.500Z,0.54
2022-11-19T11:06:06.623Z,0.69
2022-11-19T11:08:34.352Z,0.64
2022-11-19T11:11:01.323Z,0.62
2022-11-19T11:13:52.922Z,0.66
2022-11-19T11:16:44.735Z,0.65
2022-11-19T11:19:14.031Z,0.53
2022-11-19T11:21:43.869Z,0.56
2022-11-19T11:24:14.167Z,0.50
2022-11-19T11:26:41.383Z,0.72
2022-11-19T11:29:34.600Z,0.78
2022-11-19T11:32:26.522Z,0.71
2022-11-19T11:34:53.296Z,0.79
2022-11-19T11:37:20.250Z,0.91
2022-11-19T11:39:50.536Z,0.79
2022-11-19T11:42:19.161Z,0.75
2022-11-19T11:44:54.805Z,0.73
2022-11-19T11:47:26.245Z,0.79
2022-11-19T11:49:57.729Z,0.78
2022-11-19T11:52:51.853Z,0.83
2022-11-19T11:55:44.738Z,0.65
2022-11-19T11:58:30.837Z,0.87
2022-11-19T12:01:16.209Z,0.65
2022-11-19T12:04:01.297Z,0.89
2022-11-19T12:06:42.139Z,0.78
2022-11-19T12:09:51.422Z,0.77
2022-11-19T12:12:41.560Z,0.66
2022-11-19T12:15:38.927Z,0.62
2022-11-19T12:18:29.044Z,0.77
2022-11-19T12:21:12.986Z,0.76
2022-11-19T12:24:11.307Z,0.74
2022-11-19T12:27:20.343Z,0.67
2022-11-19T12:30:02.443Z,0.60
2022-11-19T12:33:11.650Z,0.61
2022-11-19T12:35:54.700Z,0.55
2022-11-19T12:38:45.942Z,0.77
2022-11-19T12:41:48.117Z,0.44
2022-11-19T12:48:35.250Z,0.69
2022-11-19T12:51:24.343Z,0.69
2022-11-19T12:54:07.198Z,0.69
2022-11-19T12:57:18.328Z,0.53
2022-11-19T13:00:21.709Z,0.66
2022-11-19T13:02:59.471Z,0.72
2022-11-19T13:05:56.992Z,0.67
2022-11-19T13:08:50.677Z,0.73
2022-11-19T13:11:26.082Z,0.75
2022-11-19T13:13:59.976Z,0.66
2022-11-19T13:16:28.137Z,0.46
2022-11-19T13:19:13.214Z,0.49
2022-11-19T13:22:03.014Z,0.52
2022-11-19T13:24:37.397Z,0.69
2022-11-19T13:27:11.697Z,0.52
2022-11-19T13:30:14.763Z,0.51
2022-11-19T13:33:13.025Z,0.58
2022-11-19T13:36:30.055Z,0.48
2022-11-19T13:39:03.402Z,0.47
2022-11-19T13:42:00.929Z,0.59
2022-11-19T13:44:41.858Z,0.54
2022-11-19T13:47:44.093Z,0.64
2022-11-19T13:50:23.373Z,0.47
2022-11-19T13:52:55.057Z,0.70
2022-11-19T13:55:39.670Z,0.40
2022-11-19T13:58:11.294Z,0.48
2022-11-19T14:00:38.328Z,0.46
2022-11-19T14:04:00.590Z,0.45
2022-11-19T14:06:52.905Z,0.50
2022-11-19T14:09:40.686Z,0.49
2022-11-19T14:12:19.399Z,0.50
2022-11-19T14:15:42.722Z,0.69
2022-11-19T14:18:54.173Z,0.72
2022-11-19T14:22:12.740Z,0.90
2022-11-19T14:25:11.335Z,0.93
2022-11-19T14:27:38.129Z,1.04
2022-11-19T14:30:13.413Z,0.96
2022-11-19T14:32:46.969Z,1.11
2022-11-19T14:35:35.244Z,0.90
2022-11-19T14:38:13.750Z,0.85
2022-11-19T14:40:43.943Z,0.86
2022-11-19T14:43:45.134Z,0.72
2022-11-19T14:46:18.186Z,1.06
2022-11-19T14:48:55.213Z,0.95
2022-11-19T14:51:37.489Z,0.93
2022-11-19T14:54:38.551Z,0.83
2022-11-19T14:57:17.392Z,0.91
2022-11-19T14:59:52.836Z,0.75
2022-11-19T15:02:32.848Z,0.47
2022-11-19T15:05:04.572Z,0.28
2022-11-19T15:07:40.830Z,0.35
2022-11-19T15:10:24.690Z,0.47
2022-11-19T15:13:03.399Z,0.33
2022-11-19T15:15:42.636Z,0.48
2022-11-19T15:18:33.199Z,0.44
2022-11-19T15:21:25.442Z,0.10
2022-11-19T15:24:30.191Z,0.21
2022-11-19T15:27:39.877Z,0.07
2022-11-19T15:30:22.292Z,0.20
2022-11-19T15:32:49.028Z,0.11
2022-11-19T15:36:12.579Z,-0.14
2022-11-19T15:38:43.110Z,-0.03
2022-11-19T15:41:14.831Z,0.02
2022-11-19T15:43:45.253Z,0.09
2022-11-19T15:46:16.674Z,0.13
2022-11-19T15:49:25.508Z,0.33
2022-11-19T15:51:58.846Z,0.20
2022-11-19T15:54:30.121Z,0.31
2022-11-19T15:57:05.958Z,0.34
2022-11-19T15:59:35.230Z,0.36
2022-11-19T16:02:03.945Z,0.19
2022-11-19T16:04:38.479Z,0.18
2022-11-19T16:07:07.838Z,0.01
2022-11-19T16:09:34.957Z,-0.02
2022-11-19T16:12:20.972Z,-0.19
2022-11-19T16:15:10.581Z,-0.29
2022-11-19T16:17:47.069Z,-0.46
2022-11-19T16:20:22.414Z,-0.40
2022-11-19T16:23:04.792Z,-0.48
2022-11-19T16:25:34.777Z,-0.30
2022-11-19T16:28:18.372Z,-0.30
2022-11-19T16:30:59.112Z,-0.37
2022-11-19T16:33:28.491Z,-0.31
2022-11-19T16:36:32.241Z,-0.17
2022-11-19T16:38:59.187Z,-0.26
2022-11-19T16:42:04.543Z,-0.24
2022-11-19T16:44:31.286Z,-0.45
2022-11-19T16:47:05.441Z,-0.33
2022-11-19T16:50:16.583Z,-0.67
2022-11-19T16:52:43.651Z,-0.68
2022-11-19T16:55:39.799Z,-0.62
2022-11-19T16:58:18.031Z,-0.66
2022-11-19T17:00:54.447Z,-0.72
2022-11-19T17:03:34.758Z,-0.82
2022-11-19T17:06:02.451Z,-0.68
2022-11-19T17:08:34.990Z,-0.60
2022-11-19T17:12:09.492Z,-0.52
2022-11-19T17:14:58.322Z,-0.54
2022-11-19T17:17:40.416Z,-0.70
2022-11-19T17:20:49.865Z,-0.76
2022-11-19T17:23:17.694Z,-0.80
2022-11-19T17:26:12.673Z,-0.82
2022-11-19T17:28:46.641Z,-1.04
2022-11-19T17:31:17.180Z,-0.78
2022-11-19T17:33:57.922Z,-0.80
2022-11-19T17:36:28.300Z,-0.88
2022-11-19T17:38:54.992Z,-0.91
2022-11-19T17:41:42.716Z,-1.08
2022-11-19T17:44:32.220Z,-1.05
2022-11-19T17:46:59.447Z,-1.06
2022-11-19T17:49:26.305Z,-1.17
2022-11-19T17:51:55.444Z,-1.33
2022-11-19T17:54:22.793Z,-1.25
2022-11-19T17:56:49.693Z,-1.12
2022-11-19T17:59:16.513Z,-1.16
2022-11-19T18:01:43.610Z,-1.09
2022-11-19T18:04:12.390Z,-1.14
2022-11-19T18:06:39.566Z,-1.27
2022-11-19T18:09:06.560Z,-1.24
2022-11-19T18:11:33.450Z,-1.37
2022-11-19T18:14:02.303Z,-1.33
2022-11-19T18:16:35.566Z,-1.32
2022-11-19T18:19:02.614Z,-1.33
2022-11-19T18:21:29.442Z,-1.16
2022-11-19T18:23:56.314Z,-1.28
2022-11-19T18:26:23.789Z,-1.34
2022-11-19T18:28:51.007Z,-1.38
2022-11-19T18:31:23.337Z,-1.45
2022-11-19T18:33:50.513Z,-1.51
2022-11-19T18:36:18.163Z,-1.50
2022-11-19T18:38:45.336Z,-1.46
2022-11-19T18:41:13.322Z,-1.33
2022-11-19T18:43:59.291Z,-1.43
2022-11-19T18:46:26.528Z,-1.44
2022-11-19T18:48:56.551Z,-1.61
2022-11-19T18:51:23.804Z,-1.55
2022-11-19T18:53:50.597Z,-1.67
2022-11-19T18:56:18.595Z,-1.55
2022-11-19T18:58:45.885Z,-1.70
2022-11-19T19:01:16.679Z,-1.76
2022-11-19T19:03:44.071Z,-1.62
2022-11-19T19:06:10.853Z,-1.72
2022-11-19T19:08:37.649Z,-1.76
2022-11-19T19:11:25.160Z,-1.90
2022-11-19T19:13:52.466Z,-1.94
2022-11-19T19:16:19.279Z,-2.05
2022-11-19T19:18:46.183Z,-2.10
2022-11-19T19:21:14.814Z,-2.13
2022-11-19T19:23:42.034Z,-2.06
2022-11-19T19:26:09.893Z,-1.94
2022-11-19T19:28:36.879Z,-1.90
2022-11-19T19:31:04.548Z,-1.81
2022-11-19T19:33:31.939Z,-1.88
2022-11-19T19:35:58.799Z,-1.91
2022-11-19T19:38:25.930Z,-2.47
2022-11-19T19:40:52.867Z,-2.50
2022-11-19T19:43:20.020Z,-2.38
2022-11-19T19:45:47.187Z,-2.48
2022-11-19T19:48:13.988Z,-2.51
2022-11-19T19:50:41.141Z,-2.41
2022-11-19T19:53:09.318Z,-2.45
2022-11-19T19:55:36.285Z,-2.55
2022-11-19T19:58:05.579Z,-3.00
2022-11-19T20:00:32.411Z,-2.73
2022-11-19T20:02:59.248Z,-2.44
2022-11-19T20:05:26.130Z,-2.66
2022-11-19T20:07:53.270Z,-2.56
2022-11-19T20:10:20.009Z,-2.68
2022-11-19T20:13:05.423Z,-2.56
2022-11-19T20:15:35.345Z,-2.51
2022-11-19T20:18:02.184Z,-2.48
2022-11-19T20:20:28.941Z,-2.61
2022-11-19T20:22:55.755Z,-2.58
2022-11-19T20:25:22.618Z,-2.70
2022-11-19T20:27:49.575Z,-2.54
2022-11-19T20:30:16.574Z,-2.70
2022-11-19T20:32:43.446Z,-2.69
2022-11-19T20:35:10.186Z,-2.78
2022-11-19T20:37:37.017Z,-2.80
2022-11-19T20:40:05.108Z,-2.81
2022-11-19T20:42:50.555Z,-2.88
2022-11-19T20:45:17.309Z,-2.79
2022-11-19T20:47:45.032Z,-2.74
2022-11-19T20:50:11.860Z,-2.77
2022-11-19T20:52:38.720Z,-3.12
2022-11-19T20:55:07.014Z,-2.83
2022-11-19T20:57:33.948Z,-2.90
2022-11-19T21:00:00.907Z,-2.94
2022-11-19T21:02:29.364Z,-2.98
2022-11-19T21:04:57.479Z,-3.06
2022-11-19T21:07:24.258Z,-3.07
2022-11-19T21:09:51.418Z,-2.98
2022-11-19T21:12:18.895Z,-2.94
2022-11-19T21:14:46.561Z,-2.93
2022-11-19T21:17:13.416Z,-2.93
2022-11-19T21:19:40.229Z,-2.97
2022-11-19T21:22:07.029Z,-2.96
2022-11-19T21:24:33.939Z,-3.04
2022-11-19T21:27:01.039Z,-3.10
2022-11-19T21:29:27.896Z,-3.05
2022-11-19T21:31:55.767Z,-3.07
2022-11-19T21:34:22.741Z,-3.00
2022-11-19T21:36:50.323Z,-3.05
2022-11-19T21:39:18.416Z,-3.10
2022-11-19T21:41:45.734Z,-3.09
2022-11-19T21:44:16.808Z,-2.94
2022-11-19T21:46:47.714Z,-2.80
2022-11-19T21:49:14.525Z,-2.93
2022-11-19T21:51:41.229Z,-3.04
2022-11-19T21:54:08.232Z,-2.95
2022-11-19T21:56:38.645Z,-3.01
2022-11-19T21:59:06.944Z,-3.04
2022-11-19T22:01:33.710Z,-3.43
2022-11-19T22:04:00.480Z,-3.30
2022-11-19T22:06:27.647Z,-3.29
2022-11-19T22:08:54.489Z,-3.27
2022-11-19T22:11:30.923Z,-3.10
2022-11-19T22:14:03.782Z,-3.17
2022-11-19T22:16:32.450Z,-3.06
2022-11-19T22:18:59.559Z,-3.08
2022-11-19T22:21:26.873Z,-3.09
2022-11-19T22:23:53.679Z,-3.11
2022-11-19T22:26:20.455Z,-2.98
2022-11-19T22:28:47.428Z,-3.02
2022-11-19T22:31:16.121Z,-3.01
2022-11-19T22:33:43.794Z,-3.07
2022-11-19T22:36:11.248Z,-3.45
2022-11-19T22:38:39.377Z,-3.46
2022-11-19T22:41:14.562Z,-3.39
2022-11-19T22:43:42.242Z,-3.33
2022-11-19T22:46:10.804Z,-3.71
2022-11-19T22:48:38.078Z,-3.38
2022-11-19T22:51:07.048Z,-3.96
2022-11-19T22:53:37.841Z,-3.92
2022-11-19T22:56:06.740Z,-3.54
2022-11-19T22:58:34.620Z,-3.62
2022-11-19T23:01:01.542Z,-3.51
2022-11-19T23:03:28.327Z,-3.43
2022-11-19T23:05:55.765Z,-3.29
2022-11-19T23:08:23.373Z,-3.20
2022-11-19T23:11:00.843Z,-3.19
2022-11-19T23:13:32.556Z,-3.08
2022-11-19T23:16:20.541Z,-3.09
2022-11-19T23:18:50.235Z,-3.02
2022-11-19T23:21:19.855Z,-3.04
2022-11-19T23:23:46.802Z,-3.10
2022-11-19T23:26:15.594Z,-3.14
2022-11-19T23:28:42.684Z,-3.20
2022-11-19T23:31:33.417Z,-3.13
2022-11-19T23:34:00.700Z,-3.22
2022-11-19T23:36:38.384Z,-3.19
2022-11-19T23:39:06.327Z,-3.08
2022-11-19T23:41:34.205Z,-3.10
2022-11-19T23:44:01.721Z,-3.11
2022-11-19T23:46:31.474Z,-3.09
2022-11-19T23:48:59.275Z,-3.05
2022-11-19T23:51:32.201Z,-3.13
2022-11-19T23:53:59.161Z,-3.05
2022-11-19T23:56:26.728Z,-3.07
2022-11-19T23:58:53.684Z,-3.02
